Time;durP1;ratioP1;P1;durP2;ratioP2;P2;SDS_P1;SDS_P2;PMS_P1;PMS_P2;Temp;Humidity;BMP_temperature;BMP_pressure;BME280_temperature;BME280_humidity;BME280_pressure;Samples;Min_cycle;Max_cycle;Signal;HPM_P1;HPM_P2
2021/01/30 00:01:53;;;;;;;8.88;5.95;;;3.40;99.90;;;;;;1814286;77;21537;-79
2021/01/30 00:04:21;;;;;;;7.22;5.40;;;3.40;99.90;;;;;;1811818;79;21150;-80
2021/01/30 00:06:54;;;;;;;10.25;5.85;;;3.40;99.90;;;;;;1813646;79;21118;-81
2021/01/30 00:09:24;;;;;;;9.20;5.45;;;3.40;99.90;;;;;;1811214;77;21122;-81
2021/01/30 00:11:53;;;;;;;8.53;5.80;;;3.40;99.90;;;;;;1817081;77;21049;-80
2021/01/30 00:14:26;;;;;;;8.08;6.25;;;3.40;99.90;;;;;;1856604;75;21584;-79
2021/01/30 00:16:54;;;;;;;9.18;6.35;;;3.40;99.90;;;;;;1805990;78;21795;-80
2021/01/30 00:19:21;;;;;;;11.97;6.45;;;3.40;99.90;;;;;;1814620;77;21194;-80
2021/01/30 00:21:54;;;;;;;11.30;6.92;;;3.30;99.90;;;;;;1809314;77;22155;-79
2021/01/30 00:24:23;;;;;;;8.83;7.03;;;3.40;99.90;;;;;;1809403;77;21525;-80
2021/01/30 00:26:52;;;;;;;11.18;7.08;;;3.50;99.90;;;;;;1809620;77;21106;-79
2021/01/30 00:29:21;;;;;;;10.28;7.15;;;3.50;99.90;;;;;;1810328;79;21219;-80
2021/01/30 00:31:49;;;;;;;9.00;7.00;;;3.50;99.90;;;;;;1813347;77;21649;-80
2021/01/30 00:34:19;;;;;;;10.40;7.45;;;3.50;99.90;;;;;;1810407;77;21141;-79
2021/01/30 00:36:46;;;;;;;10.32;7.58;;;3.50;99.90;;;;;;1782404;79;21094;-80
2021/01/30 00:39:14;;;;;;;10.38;7.03;;;3.60;99.90;;;;;;1811734;79;21123;-80
2021/01/30 00:41:41;;;;;;;9.88;7.55;;;3.50;99.90;;;;;;1812910;77;21777;-77
2021/01/30 00:44:09;;;;;;;10.23;7.05;;;3.50;99.90;;;;;;1813986;79;21568;-80
2021/01/30 00:46:36;;;;;;;10.38;6.90;;;3.50;99.90;;;;;;1814567;79;21087;-80
2021/01/30 00:49:05;;;;;;;8.53;6.50;;;3.60;99.90;;;;;;1811384;77;21187;-79
2021/01/30 00:51:33;;;;;;;9.25;6.60;;;3.50;99.90;;;;;;1811563;77;21634;-79
2021/01/30 00:54:00;;;;;;;8.50;6.35;;;3.50;99.90;;;;;;1812969;77;21218;-79
2021/01/30 00:56:28;;;;;;;8.38;5.80;;;3.50;99.90;;;;;;1855323;75;21154;-78
2021/01/30 00:58:55;;;;;;;7.83;6.45;;;3.50;99.90;;;;;;1811752;77;22037;-78
2021/01/30 01:01:23;;;;;;;8.13;5.97;;;3.50;99.90;;;;;;1811638;77;21114;-80
2021/01/30 01:03:50;;;;;;;8.45;5.78;;;3.50;99.90;;;;;;1808762;77;21260;-79
2021/01/30 01:06:32;;;;;;;6.03;5.12;;;3.50;99.90;;;;;;1813603;77;21074;-78
2021/01/30 01:09:00;;;;;;;11.78;6.10;;;3.50;99.90;;;;;;1778768;77;21142;-79
2021/01/30 01:11:28;;;;;;;7.58;5.22;;;3.40;99.90;;;;;;1809996;78;21126;-80
2021/01/30 01:13:56;;;;;;;8.35;6.15;;;3.50;99.90;;;;;;1813224;77;21184;-79
2021/01/30 01:16:23;;;;;;;7.62;6.00;;;3.50;99.90;;;;;;1814459;77;21087;-79
2021/01/30 01:18:51;;;;;;;8.88;6.15;;;3.50;99.90;;;;;;1808712;77;21069;-79
2021/01/30 01:21:19;;;;;;;7.95;6.10;;;3.50;99.90;;;;;;1810321;79;21176;-78
2021/01/30 01:23:47;;;;;;;8.15;5.95;;;3.50;99.90;;;;;;1815697;77;21749;-78
2021/01/30 01:26:17;;;;;;;8.58;6.55;;;3.40;99.90;;;;;;1813001;79;21189;-78
2021/01/30 01:28:45;;;;;;;10.20;7.10;;;3.50;99.90;;;;;;1813050;77;21161;-78
2021/01/30 01:31:14;;;;;;;9.18;6.90;;;3.50;99.90;;;;;;1809335;77;21138;-78
2021/01/30 01:33:41;;;;;;;9.40;7.35;;;3.50;99.90;;;;;;1810037;77;21173;-78
2021/01/30 01:36:11;;;;;;;9.88;7.15;;;3.60;99.90;;;;;;1818130;77;21186;-78
2021/01/30 01:38:39;;;;;;;10.45;7.20;;;3.60;99.90;;;;;;1812454;78;21168;-79
2021/01/30 01:41:06;;;;;;;9.55;7.20;;;3.60;99.90;;;;;;1816855;77;21059;-77
2021/01/30 01:43:35;;;;;;;9.28;7.22;;;3.70;99.90;;;;;;1813829;78;21675;-81
2021/01/30 01:46:21;;;;;;;10.72;7.47;;;3.60;99.90;;;;;;1840428;74;21202;-82
2021/01/30 01:49:03;;;;;;;9.45;7.17;;;3.60;99.90;;;;;;1881423;74;21047;-83
2021/01/30 01:52:01;;;;;;;10.70;7.55;;;3.60;99.90;;;;;;1880181;75;21073;-82
2021/01/30 01:54:31;;;;;;;13.43;8.33;;;3.60;99.90;;;;;;1879696;76;21106;-83
2021/01/30 01:57:01;;;;;;;11.90;8.80;;;3.50;99.90;;;;;;1876160;75;21093;-83
2021/01/30 01:59:29;;;;;;;12.23;8.33;;;3.40;99.90;;;;;;1873562;75;21106;-81
2021/01/30 02:01:56;;;;;;;10.60;8.40;;;3.60;99.90;;;;;;1880021;76;21118;-81
2021/01/30 02:04:25;;;;;;;14.28;9.08;;;3.50;99.90;;;;;;1883693;74;21098;-82
2021/01/30 02:06:53;;;;;;;11.55;8.98;;;3.50;99.90;;;;;;1861294;76;21127;-83
2021/01/30 02:09:23;;;;;;;11.50;8.98;;;3.60;99.90;;;;;;1884789;75;21089;-82
2021/01/30 02:12:03;;;;;;;13.62;9.75;;;3.60;99.90;;;;;;1850606;76;21092;-81
2021/01/30 02:14:33;;;;;;;14.58;9.83;;;3.60;99.90;;;;;;1933628;73;21157;-80
2021/01/30 02:17:06;;;;;;;12.65;9.43;;;3.60;99.90;;;;;;1924397;73;21071;-80
2021/01/30 02:19:57;;;;;;;14.07;10.30;;;3.60;99.90;;;;;;1932124;73;21079;-83
2021/01/30 02:22:50;;;;;;;13.38;10.40;;;3.50;99.90;;;;;;1923935;73;21137;-84
2021/01/30 02:25:33;;;;;;;13.32;9.68;;;3.50;99.90;;;;;;1876499;76;21122;-82
2021/01/30 02:28:24;;;;;;;14.87;10.13;;;3.50;99.90;;;;;;1878465;74;21113;-81
2021/01/30 02:31:18;;;;;;;15.68;10.40;;;3.50;99.90;;;;;;1879039;75;21126;-82
2021/01/30 02:33:58;;;;;;;13.68;10.10;;;3.60;99.90;;;;;;1876012;76;21262;-81
2021/01/30 02:36:45;;;;;;;14.50;10.32;;;3.60;99.90;;;;;;1873919;76;21102;-82
2021/01/30 02:39:22;;;;;;;13.62;10.55;;;3.60;99.90;;;;;;1856350;76;21612;-82
2021/01/30 02:41:52;;;;;;;13.72;10.18;;;3.60;99.90;;;;;;1885064;75;21035;-82
2021/01/30 02:44:22;;;;;;;15.20;10.60;;;3.60;99.90;;;;;;1929447;72;21060;-84
2021/01/30 02:46:52;;;;;;;14.87;9.83;;;3.70;99.90;;;;;;1879670;75;21210;-81
2021/01/30 02:49:26;;;;;;;15.88;11.80;;;3.80;99.90;;;;;;1883965;75;21086;-81
2021/01/30 02:51:59;;;;;;;14.28;10.53;;;3.70;99.90;;;;;;1884410;76;21174;-82
2021/01/30 02:54:27;;;;;;;15.35;11.60;;;3.70;99.90;;;;;;1882163;75;21119;-82
2021/01/30 02:56:58;;;;;;;15.10;10.53;;;3.60;99.90;;;;;;1871733;76;21832;-86
2021/01/30 02:59:29;;;;;;;15.40;10.35;;;3.70;99.90;;;;;;1873574;75;21118;-83
2021/01/30 03:01:57;;;;;;;13.13;10.60;;;3.70;99.90;;;;;;1843280;76;21095;-83
2021/01/30 03:04:28;;;;;;;13.43;10.00;;;3.70;99.90;;;;;;1881918;75;21026;-84
2021/01/30 03:07:14;;;;;;;14.50;11.08;;;3.70;99.90;;;;;;1915231;73;21241;-84
2021/01/30 03:10:05;;;;;;;13.68;10.50;;;3.70;99.90;;;;;;1899509;74;21398;-83
2021/01/30 03:12:45;;;;;;;13.53;10.78;;;3.70;99.90;;;;;;1904024;74;21088;-79
2021/01/30 03:15:19;;;;;;;14.85;10.82;;;3.70;99.90;;;;;;1899413;74;21080;-85
2021/01/30 03:17:48;;;;;;;14.03;10.98;;;3.70;99.90;;;;;;1899252;74;21134;-81
2021/01/30 03:20:16;;;;;;;15.20;10.68;;;3.80;99.90;;;;;;1904348;74;21018;-83
2021/01/30 03:22:46;;;;;;;14.43;11.57;;;3.70;99.90;;;;;;1903511;74;21057;-84
2021/01/30 03:25:16;;;;;;;13.25;10.30;;;3.70;99.90;;;;;;1900510;73;21125;-82
2021/01/30 03:27:44;;;;;;;14.60;10.98;;;3.70;99.90;;;;;;1897971;74;21089;-82
2021/01/30 03:30:12;;;;;;;15.15;11.65;;;3.70;99.90;;;;;;1901987;74;21170;-82
2021/01/30 03:32:40;;;;;;;14.40;11.12;;;3.80;99.90;;;;;;1906088;74;21069;-83
2021/01/30 03:35:11;;;;;;;15.65;12.00;;;3.80;99.90;;;;;;1902338;74;21170;-84
2021/01/30 03:37:40;;;;;;;17.25;11.93;;;3.70;99.90;;;;;;1898145;74;21214;-84
2021/01/30 03:40:09;;;;;;;16.23;12.98;;;3.70;99.90;;;;;;1906648;74;21104;-83
2021/01/30 03:42:37;;;;;;;17.77;13.00;;;3.80;99.90;;;;;;1902016;74;21045;-83
2021/01/30 03:45:08;;;;;;;17.10;13.03;;;3.90;99.90;;;;;;1903520;74;21010;-81
2021/01/30 03:47:36;;;;;;;17.98;14.15;;;3.90;99.90;;;;;;1903924;74;21118;-82
2021/01/30 03:50:06;;;;;;;17.12;14.15;;;3.90;99.90;;;;;;1903020;74;21085;-83
2021/01/30 03:52:33;;;;;;;19.52;14.65;;;4.00;99.90;;;;;;1902689;74;21166;-82
2021/01/30 03:55:02;;;;;;;21.97;16.45;;;4.00;99.90;;;;;;1900644;74;21139;-83
2021/01/30 03:57:29;;;;;;;21.52;15.85;;;4.00;99.90;;;;;;1898155;74;21148;-84
2021/01/30 03:59:57;;;;;;;23.38;17.73;;;3.90;99.90;;;;;;1897051;74;21150;-82
2021/01/30 04:02:24;;;;;;;24.80;18.75;;;3.80;99.90;;;;;;1902620;74;21135;-83
2021/01/30 04:04:52;;;;;;;26.65;19.67;;;3.80;99.90;;;;;;1902887;74;21220;-82
2021/01/30 04:07:20;;;;;;;25.48;18.42;;;3.70;99.90;;;;;;1903928;74;21229;-81
2021/01/30 04:09:49;;;;;;;29.42;19.52;;;3.60;99.90;;;;;;1897954;74;21092;-81
2021/01/30 04:12:16;;;;;;;24.87;18.90;;;3.40;99.90;;;;;;1902688;74;21111;-81
2021/01/30 04:14:44;;;;;;;25.48;19.75;;;3.30;99.90;;;;;;1902852;74;21523;-83
2021/01/30 04:17:11;;;;;;;27.98;20.85;;;3.30;99.90;;;;;;1900510;74;21073;-84
2021/01/30 04:19:39;;;;;;;25.27;19.40;;;3.30;99.90;;;;;;1898442;74;21146;-83
2021/01/30 04:22:06;;;;;;;28.57;20.72;;;3.30;99.90;;;;;;1906014;74;21072;-84
2021/01/30 04:24:34;;;;;;;29.87;20.35;;;3.30;99.90;;;;;;1903326;74;21126;-85
2021/01/30 04:27:01;;;;;;;26.05;20.08;;;3.30;99.90;;;;;;1902691;74;21131;-82
2021/01/30 04:29:29;;;;;;;27.07;20.12;;;3.40;99.90;;;;;;1901336;74;21077;-83
2021/01/30 04:31:58;;;;;;;29.65;19.92;;;3.50;99.90;;;;;;1905518;74;21100;-83
2021/01/30 04:34:26;;;;;;;29.10;20.43;;;3.60;99.90;;;;;;1902940;74;21107;-84
2021/01/30 04:36:53;;;;;;;27.02;20.08;;;3.60;99.90;;;;;;1900187;74;21182;-84
2021/01/30 04:39:21;;;;;;;29.12;20.75;;;3.70;99.90;;;;;;1906286;74;21099;-83
2021/01/30 04:42:00;;;;;;;27.55;19.65;;;3.70;99.90;;;;;;1906979;74;21061;-83
2021/01/30 04:44:47;;;;;;;26.70;19.20;;;3.60;99.90;;;;;;1900396;74;21146;-83
2021/01/30 04:47:18;;;;;;;29.95;21.07;;;3.50;99.90;;;;;;1904182;74;21261;-80
2021/01/30 04:50:08;;;;;;;26.48;19.20;;;3.40;99.90;;;;;;1897181;73;21051;-82
2021/01/30 04:52:55;;;;;;;29.60;20.20;;;3.40;99.90;;;;;;1898928;74;21096;-82
2021/01/30 04:55:41;;;;;;;30.02;20.37;;;3.40;99.90;;;;;;1903107;74;21120;-82
2021/01/30 04:58:17;;;;;;;27.45;20.05;;;3.40;99.90;;;;;;1899771;74;21225;-82
2021/01/30 05:01:04;;;;;;;27.07;20.23;;;3.30;99.90;;;;;;1900076;74;21095;-82
2021/01/30 05:03:38;;;;;;;28.23;19.57;;;3.30;99.90;;;;;;1900249;74;21037;-82
2021/01/30 05:06:20;;;;;;;28.92;20.52;;;3.20;99.90;;;;;;1898017;74;21116;-82
2021/01/30 05:08:53;;;;;;;27.55;19.65;;;3.30;99.90;;;;;;1897937;74;21112;-82
2021/01/30 05:11:26;;;;;;;32.58;21.10;;;3.20;99.90;;;;;;1903230;74;21138;-83
2021/01/30 05:14:18;;;;;;;32.50;21.48;;;3.20;99.90;;;;;;1901131;74;21132;-82
2021/01/30 05:16:51;;;;;;;34.33;21.68;;;3.20;99.90;;;;;;1897140;74;21101;-84
2021/01/30 05:19:19;;;;;;;29.50;20.32;;;3.10;99.90;;;;;;1871822;75;21139;-82
2021/01/30 05:22:02;;;;;;;33.85;20.68;;;3.00;99.90;;;;;;1845936;76;21162;-82
2021/01/30 05:24:30;;;;;;;31.97;21.00;;;2.80;99.90;;;;;;1880834;75;21179;-82
2021/01/30 05:27:16;;;;;;;34.65;21.55;;;2.70;99.90;;;;;;1878951;75;21587;-83
2021/01/30 05:29:49;;;;;;;29.85;21.15;;;2.70;99.90;;;;;;1874516;75;21089;-83
2021/01/30 05:32:31;;;;;;;30.52;21.60;;;2.60;99.90;;;;;;1875599;75;21093;-82
2021/01/30 05:35:14;;;;;;;27.10;19.42;;;2.60;99.90;;;;;;1926109;73;21107;-83
2021/01/30 05:37:50;;;;;;;35.30;21.30;;;2.60;99.90;;;;;;1925143;73;21375;-82
2021/01/30 05:40:41;;;;;;;29.30;20.77;;;2.60;99.90;;;;;;1882972;74;21257;-82
2021/01/30 05:43:29;;;;;;;30.68;20.25;;;2.40;99.90;;;;;;1846909;75;21508;-85
2021/01/30 05:45:59;;;;;;;29.92;20.65;;;2.20;99.90;;;;;;1863961;76;21098;-84
2021/01/30 05:48:30;;;;;;;30.23;20.80;;;2.10;99.90;;;;;;1880003;74;21545;-83
2021/01/30 05:51:20;;;;;;;31.33;21.45;;;2.20;99.90;;;;;;1876824;74;21121;-84
2021/01/30 05:53:49;;;;;;;35.17;23.18;;;2.30;99.90;;;;;;1877026;74;21556;-82
2021/01/30 05:56:17;;;;;;;29.77;21.15;;;2.30;99.90;;;;;;1875331;75;21133;-83
2021/01/30 05:58:46;;;;;;;33.35;23.07;;;2.50;99.90;;;;;;1877891;75;21178;-82
2021/01/30 06:01:23;;;;;;;31.68;22.32;;;2.60;99.90;;;;;;1875525;75;21089;-82
2021/01/30 06:04:02;;;;;;;32.33;21.87;;;2.60;99.90;;;;;;1874935;75;21046;-84
2021/01/30 06:06:39;;;;;;;34.50;22.65;;;2.70;99.90;;;;;;1877072;74;21136;-83
2021/01/30 06:09:12;;;;;;;31.97;20.52;;;2.70;99.90;;;;;;1878316;75;21061;-84
2021/01/30 06:11:51;;;;;;;31.23;22.15;;;2.80;99.90;;;;;;1874116;75;21622;-84
2021/01/30 06:14:40;;;;;;;36.17;22.98;;;2.80;99.90;;;;;;1922370;73;21095;-84
2021/01/30 06:17:28;;;;;;;34.40;23.05;;;2.80;99.90;;;;;;1872956;76;21181;-84
2021/01/30 06:20:17;;;;;;;35.68;22.82;;;2.70;99.90;;;;;;1873855;74;21565;-82
2021/01/30 06:22:45;;;;;;;33.38;22.45;;;2.80;99.90;;;;;;1872858;76;21581;-85
2021/01/30 06:25:25;;;;;;;30.35;21.85;;;2.80;99.90;;;;;;1873026;75;21064;-82
2021/01/30 06:27:56;;;;;;;32.78;22.67;;;2.80;99.90;;;;;;1875302;74;21115;-83
2021/01/30 06:30:41;;;;;;;36.63;23.35;;;2.90;99.90;;;;;;1869413;75;21610;-84
2021/01/30 06:33:24;;;;;;;35.17;24.00;;;2.90;99.90;;;;;;1875954;74;21220;-85
2021/01/30 06:35:57;;;;;;;34.85;24.12;;;2.80;99.90;;;;;;1874198;76;21087;-83
2021/01/30 06:38:46;;;;;;;33.45;22.35;;;2.70;99.90;;;;;;1872918;76;21247;-82
2021/01/30 06:41:19;;;;;;;34.08;22.62;;;2.70;99.90;;;;;;1878339;75;21059;-83
2021/01/30 06:43:50;;;;;;;32.45;22.58;;;2.70;99.90;;;;;;1869229;76;21149;-83
2021/01/30 06:46:21;;;;;;;33.85;23.35;;;2.60;99.90;;;;;;1843238;76;22294;-83
2021/01/30 06:48:51;;;;;;;34.90;23.45;;;2.60;99.90;;;;;;1846156;76;21127;-84
2021/01/30 06:51:27;;;;;;;34.67;22.93;;;2.60;99.90;;;;;;1877792;75;21194;-84
2021/01/30 06:53:56;;;;;;;36.10;23.52;;;2.60;99.90;;;;;;1873760;74;21162;-83
2021/01/30 06:56:26;;;;;;;35.73;22.58;;;2.50;99.90;;;;;;1875705;76;21166;-83
2021/01/30 06:59:02;;;;;;;33.02;22.85;;;2.50;99.90;;;;;;1873201;75;21083;-83
2021/01/30 07:01:39;;;;;;;35.85;23.55;;;2.50;99.90;;;;;;1862026;76;21993;-83
2021/01/30 07:04:24;;;;;;;34.78;23.42;;;2.40;99.90;;;;;;1877479;75;21122;-82
2021/01/30 07:07:01;;;;;;;32.83;21.90;;;2.30;99.90;;;;;;1874397;75;21130;-83
2021/01/30 07:09:46;;;;;;;31.87;21.87;;;2.30;99.90;;;;;;1880139;75;21182;-82
2021/01/30 07:12:33;;;;;;;31.65;21.65;;;2.10;99.90;;;;;;1878806;75;21495;-82
2021/01/30 07:15:19;;;;;;;35.05;23.07;;;1.90;99.90;;;;;;1876133;75;21180;-85
2021/01/30 07:17:52;;;;;;;33.45;22.32;;;1.80;99.90;;;;;;1877656;75;21137;-82
2021/01/30 07:20:29;;;;;;;32.48;22.80;;;1.70;99.90;;;;;;1880154;75;21146;-83
2021/01/30 07:23:05;;;;;;;31.77;22.25;;;1.70;99.90;;;;;;1876032;74;21123;-83
2021/01/30 07:25:56;;;;;;;33.45;22.65;;;1.70;99.90;;;;;;1878510;74;21309;-83
2021/01/30 07:28:30;;;;;;;35.08;22.20;;;1.70;99.90;;;;;;1874124;74;21155;-83
2021/01/30 07:31:16;;;;;;;31.75;22.15;;;1.80;99.90;;;;;;1879185;76;21085;-81
2021/01/30 07:33:55;;;;;;;32.15;21.05;;;1.90;99.90;;;;;;1873600;76;21122;-82
2021/01/30 07:36:25;;;;;;;27.37;17.42;;;2.00;99.90;;;;;;1879623;76;21130;-82
2021/01/30 07:39:29;;;;;;;25.48;17.92;;;2.00;99.90;;;;;;1869573;75;21063;-82
2021/01/30 07:42:06;;;;;;;23.15;16.10;;;2.00;99.90;;;;;;1854445;76;21094;-83
2021/01/30 07:44:48;;;;;;;23.20;16.40;;;2.00;99.90;;;;;;1879386;75;21480;-82
2021/01/30 07:47:27;;;;;;;24.20;17.07;;;2.00;99.90;;;;;;1871552;72;21319;-79
2021/01/30 07:50:01;;;;;;;25.70;17.30;;;2.00;99.90;;;;;;1868664;75;21107;-81
2021/01/30 07:52:31;;;;;;;26.82;18.98;;;2.10;99.90;;;;;;1870447;75;21173;-78
2021/01/30 07:55:02;;;;;;;26.35;17.35;;;2.00;99.90;;;;;;1866368;75;21545;-79
2021/01/30 07:58:00;;;;;;;26.97;18.42;;;2.10;99.90;;;;;;1886733;75;21198;-79
2021/01/30 08:00:36;;;;;;;26.55;17.95;;;2.00;99.90;;;;;;1888525;75;21537;-81
2021/01/30 08:03:24;;;;;;;26.07;17.65;;;2.00;99.90;;;;;;1890116;75;21049;-81
2021/01/30 08:06:20;;;;;;;25.95;17.55;;;2.00;99.90;;;;;;1889142;75;21663;-81
2021/01/30 08:09:12;;;;;;;26.40;18.07;;;2.10;99.90;;;;;;1886383;75;22041;-81
2021/01/30 08:11:42;;;;;;;28.27;18.87;;;2.20;99.90;;;;;;1889668;74;21112;-81
2021/01/30 08:14:25;;;;;;;31.12;20.08;;;2.20;99.90;;;;;;1891471;75;21585;-82
2021/01/30 08:17:01;;;;;;;31.77;20.97;;;2.10;99.90;;;;;;1886741;74;21132;-81
2021/01/30 08:20:07;;;;;;;30.50;19.92;;;2.10;99.90;;;;;;1887356;75;21101;-80
2021/01/30 08:22:55;;;;;;;30.85;19.62;;;2.20;99.90;;;;;;1891122;75;21045;-82
2021/01/30 08:25:45;;;;;;;30.02;20.00;;;2.20;99.90;;;;;;1888309;75;21124;-81
2021/01/30 08:28:22;;;;;;;28.85;19.12;;;2.20;99.90;;;;;;1890287;75;21143;-80
2021/01/30 08:30:55;;;;;;;24.47;17.48;;;2.10;99.90;;;;;;1887837;75;21104;-80
2021/01/30 08:33:23;;;;;;;27.67;19.25;;;2.10;99.90;;;;;;1890373;75;21077;-81
2021/01/30 08:35:56;;;;;;;29.12;18.82;;;2.10;99.90;;;;;;1891169;75;21033;-80
2021/01/30 08:38:26;;;;;;;26.62;18.37;;;2.20;99.90;;;;;;1894669;75;21742;-78
2021/01/30 08:41:12;;;;;;;27.50;19.02;;;2.20;99.90;;;;;;1888964;74;21120;-82
2021/01/30 08:43:43;;;;;;;31.77;19.20;;;2.20;99.90;;;;;;1881867;75;21508;-81
2021/01/30 08:46:41;;;;;;;26.45;17.15;;;2.20;99.90;;;;;;1888439;74;21176;-80
2021/01/30 08:49:18;;;;;;;26.42;18.15;;;2.20;99.90;;;;;;1888184;75;21262;-80
2021/01/30 08:51:48;;;;;;;24.50;16.48;;;2.30;99.90;;;;;;1886786;75;21124;-80
2021/01/30 08:54:24;;;;;;;24.27;18.05;;;2.20;99.90;;;;;;1891016;75;21081;-79
2021/01/30 08:56:53;;;;;;;24.87;16.15;;;2.20;99.90;;;;;;1891125;75;21144;-80
2021/01/30 08:59:43;;;;;;;24.67;17.48;;;2.30;99.90;;;;;;1885587;75;21543;-80
2021/01/30 09:02:28;;;;;;;23.25;17.32;;;2.30;99.90;;;;;;1884352;74;21112;-82
2021/01/30 09:05:11;;;;;;;25.37;17.15;;;2.30;99.90;;;;;;1889292;75;21132;-80
2021/01/30 09:07:41;;;;;;;23.52;17.00;;;2.20;99.90;;;;;;1886016;75;21152;-79
2021/01/30 09:10:15;;;;;;;21.95;15.80;;;2.20;99.90;;;;;;1887779;74;21519;-79
2021/01/30 09:13:10;;;;;;;24.18;16.52;;;2.20;99.90;;;;;;1887726;75;21222;-80
2021/01/30 09:15:43;;;;;;;24.47;16.93;;;2.20;99.90;;;;;;1883416;74;21614;-82
2021/01/30 09:18:31;;;;;;;28.15;16.93;;;2.30;99.90;;;;;;1887087;75;21175;-80
2021/01/30 09:21:35;;;;;;;22.02;16.17;;;2.30;99.90;;;;;;1849390;75;21136;-81
2021/01/30 09:24:17;;;;;;;22.52;15.30;;;2.40;99.90;;;;;;1889120;75;21057;-80
2021/01/30 09:26:53;;;;;;;24.85;17.10;;;2.40;99.90;;;;;;1887557;75;21578;-81
2021/01/30 09:29:25;;;;;;;23.55;16.73;;;2.40;99.90;;;;;;1892828;75;21085;-81
2021/01/30 09:31:57;;;;;;;20.82;15.38;;;2.60;99.90;;;;;;1885217;75;21175;-79
2021/01/30 09:34:28;;;;;;;22.55;16.00;;;2.70;99.90;;;;;;1888063;75;21037;-80
2021/01/30 09:36:55;;;;;;;26.50;19.10;;;2.80;99.90;;;;;;1887613;75;21031;-80
2021/01/30 09:39:35;;;;;;;24.12;17.48;;;2.80;99.90;;;;;;1888401;75;21050;-80
2021/01/30 09:42:17;;;;;;;25.23;17.27;;;2.80;99.90;;;;;;1888537;74;21092;-80
2021/01/30 09:44:47;;;;;;;;;;;2.70;99.90;;;;;;1890767;75;21203;-79
2021/01/30 09:47:22;;;;;;;21.80;15.00;;;2.80;99.90;;;;;;1889635;74;20210;-81
2021/01/30 09:49:59;;;;;;;24.23;15.85;;;2.80;99.90;;;;;;1887013;75;22026;-80
2021/01/30 09:52:27;;;;;;;22.22;15.45;;;3.00;99.90;;;;;;1889622;75;21077;-79
2021/01/30 09:55:09;;;;;;;22.80;15.98;;;3.00;99.90;;;;;;1887003;75;21085;-79
2021/01/30 09:57:37;;;;;;;;;;;3.00;99.90;;;;;;1891706;75;21215;-81
2021/01/30 10:00:11;;;;;;;22.00;14.60;;;3.00;99.90;;;;;;1889522;75;20246;-82
2021/01/30 10:02:38;;;;;;;23.05;14.80;;;3.00;99.90;;;;;;1890676;75;21365;-80
2021/01/30 10:05:17;;;;;;;21.75;15.80;;;2.90;99.90;;;;;;1893555;75;21096;-81
2021/01/30 10:07:45;;;;;;;21.30;14.68;;;3.00;99.90;;;;;;1888018;75;21230;-81
2021/01/30 10:10:30;;;;;;;20.77;13.98;;;3.00;99.90;;;;;;1889105;74;21721;-81
2021/01/30 10:13:00;;;;;;;19.40;14.00;;;3.10;99.90;;;;;;1888505;75;21089;-80
2021/01/30 10:15:31;;;;;;;19.48;14.47;;;3.10;99.90;;;;;;1887479;75;21042;-80
2021/01/30 10:18:04;;;;;;;21.10;15.00;;;3.10;99.90;;;;;;1891554;75;21105;-81
2021/01/30 10:20:43;;;;;;;23.12;16.05;;;3.10;99.90;;;;;;1890265;75;21198;-80
2021/01/30 10:23:11;;;;;;;24.57;15.70;;;3.00;99.90;;;;;;1889411;75;21516;-80
2021/01/30 10:25:39;;;;;;;22.25;16.50;;;3.10;99.90;;;;;;1893153;75;21123;-81
2021/01/30 10:28:09;;;;;;;21.90;15.43;;;3.20;99.90;;;;;;1889775;75;21128;-80
2021/01/30 10:30:37;;;;;;;20.77;14.87;;;3.10;99.90;;;;;;1891611;75;21595;-80
2021/01/30 10:33:10;;;;;;;23.30;15.70;;;3.20;99.90;;;;;;1891952;75;21108;-81
2021/01/30 10:35:50;;;;;;;22.37;15.98;;;3.20;99.90;;;;;;1891589;75;21348;-80
2021/01/30 10:38:26;;;;;;;23.52;16.32;;;3.30;99.90;;;;;;1888830;75;21168;-80
2021/01/30 10:40:58;;;;;;;22.37;15.88;;;3.30;99.90;;;;;;1888543;74;21665;-79
2021/01/30 10:43:31;;;;;;;19.30;14.10;;;3.30;99.90;;;;;;1891464;75;21089;-81
2021/01/30 10:46:02;;;;;;;21.42;15.03;;;3.40;99.90;;;;;;1892117;74;22079;-79
2021/01/30 10:48:35;;;;;;;18.85;14.10;;;3.40;99.90;;;;;;1891135;75;21058;-79
2021/01/30 10:51:05;;;;;;;17.87;13.45;;;3.40;99.90;;;;;;1889522;75;21116;-78
2021/01/30 10:53:38;;;;;;;19.75;14.35;;;3.50;99.90;;;;;;1888150;75;21085;-78
2021/01/30 10:56:24;;;;;;;22.15;15.72;;;3.60;99.90;;;;;;1895000;75;21152;-79
2021/01/30 10:58:54;;;;;;;18.00;13.22;;;3.80;99.90;;;;;;1888263;74;21511;-80
2021/01/30 11:01:31;;;;;;;19.57;13.72;;;3.80;99.90;;;;;;1892745;75;21174;-78
2021/01/30 11:04:01;;;;;;;19.95;13.80;;;3.90;99.90;;;;;;1889121;75;21230;-79
2021/01/30 11:06:34;;;;;;;20.43;14.38;;;4.00;99.90;;;;;;1899508;75;21113;-78
2021/01/30 11:09:14;;;;;;;20.43;15.23;;;4.10;99.90;;;;;;1890315;75;21088;-78
2021/01/30 11:11:42;;;;;;;21.37;14.73;;;4.00;99.90;;;;;;1890909;74;21167;-79
2021/01/30 11:14:27;;;;;;;19.80;15.05;;;4.10;99.90;;;;;;1886873;75;22449;-79
2021/01/30 11:16:57;;;;;;;19.87;14.78;;;4.00;99.90;;;;;;1883117;74;21684;-79
2021/01/30 11:19:34;;;;;;;17.77;13.60;;;3.80;99.90;;;;;;1890061;75;21100;-77
2021/01/30 11:22:20;;;;;;;19.85;14.68;;;3.90;99.90;;;;;;1887714;75;21543;-79
2021/01/30 11:25:08;;;;;;;19.42;14.63;;;3.90;99.90;;;;;;1890434;75;21174;-78
2021/01/30 11:27:40;;;;;;;24.40;15.85;;;3.80;99.90;;;;;;1887322;75;21124;-78
2021/01/30 11:30:23;;;;;;;22.65;15.13;;;3.80;99.90;;;;;;1890580;75;21178;-79
2021/01/30 11:32:54;;;;;;;;;;;3.80;99.90;;;;;;1893912;75;21538;-79
2021/01/30 11:35:24;;;;;;;22.67;16.27;;;3.70;99.90;;;;;;1888360;75;20173;-78
2021/01/30 11:37:53;;;;;;;25.48;16.80;;;3.70;99.90;;;;;;1892126;75;21159;-79
2021/01/30 11:40:21;;;;;;;22.02;16.02;;;3.50;99.90;;;;;;1899462;74;22071;-78
2021/01/30 11:42:49;;;;;;;26.68;17.82;;;3.50;99.90;;;;;;1890099;75;21049;-78
2021/01/30 11:45:16;;;;;;;22.87;17.32;;;3.50;99.90;;;;;;1887629;75;21606;-79
2021/01/30 11:47:44;;;;;;;25.25;18.85;;;3.20;99.90;;;;;;1888609;74;21101;-79
2021/01/30 11:50:12;;;;;;;33.80;22.42;;;3.30;99.90;;;;;;1890811;75;21054;-78
2021/01/30 11:52:39;;;;;;;28.02;19.65;;;3.20;99.90;;;;;;1892675;75;21210;-78
2021/01/30 11:55:07;;;;;;;25.72;18.90;;;3.40;99.90;;;;;;1889584;75;20998;-78
2021/01/30 11:57:35;;;;;;;28.70;21.20;;;3.50;99.90;;;;;;1896956;74;21065;-80
2021/01/30 12:00:04;;;;;;;25.35;18.52;;;3.70;99.90;;;;;;1894830;75;21085;-81
2021/01/30 12:02:37;;;;;;;23.83;17.92;;;3.60;99.90;;;;;;1883947;75;21014;-79
2021/01/30 12:05:07;;;;;;;26.00;18.65;;;3.40;99.90;;;;;;1890794;75;21086;-80
2021/01/30 12:07:34;;;;;;;23.02;16.65;;;3.50;99.90;;;;;;1893455;75;21152;-80
2021/01/30 12:10:02;;;;;;;23.67;16.93;;;3.60;99.90;;;;;;1889748;75;21061;-80
2021/01/30 12:12:29;;;;;;;23.90;16.35;;;3.70;99.90;;;;;;1887884;74;21379;-79
2021/01/30 12:14:57;;;;;;;22.87;16.40;;;3.60;99.90;;;;;;1891378;75;21135;-81
2021/01/30 12:17:42;;;;;;;22.98;15.98;;;3.70;99.90;;;;;;1887716;74;21697;-80
2021/01/30 12:20:22;;;;;;;24.07;17.20;;;3.80;99.90;;;;;;1886712;75;21108;-80
2021/01/30 12:22:50;;;;;;;22.75;15.78;;;3.70;99.90;;;;;;1897731;75;21185;-80
2021/01/30 12:25:19;;;;;;;23.52;17.55;;;3.70;99.90;;;;;;1886668;75;21155;-81
2021/01/30 12:27:54;;;;;;;23.10;17.15;;;3.80;99.90;;;;;;1893844;75;21124;-80
2021/01/30 12:30:28;;;;;;;24.82;17.75;;;3.80;99.90;;;;;;1887700;75;21096;-81
2021/01/30 12:32:56;;;;;;;24.35;17.52;;;3.90;99.90;;;;;;1883999;75;21054;-81
2021/01/30 12:35:25;;;;;;;23.35;17.95;;;3.90;99.90;;;;;;1888289;75;21128;-81
2021/01/30 12:37:54;;;;;;;24.87;17.80;;;3.90;99.90;;;;;;1887219;75;21185;-80
2021/01/30 12:40:23;;;;;;;23.15;16.93;;;3.90;99.90;;;;;;1894423;74;21092;-80
2021/01/30 12:42:51;;;;;;;23.87;16.55;;;3.90;99.90;;;;;;1890129;75;21053;-78
2021/01/30 12:45:18;;;;;;;27.55;16.80;;;4.00;99.90;;;;;;1899472;75;21546;-80
2021/01/30 12:47:46;;;;;;;28.73;18.23;;;4.00;99.90;;;;;;1894657;74;21136;-82
2021/01/30 12:50:17;;;;;;;27.07;18.02;;;4.10;99.90;;;;;;1897940;74;21756;-76
2021/01/30 12:52:44;;;;;;;24.82;17.42;;;4.10;99.90;;;;;;1890049;75;21120;-86
2021/01/30 12:55:12;;;;;;;24.00;16.77;;;4.10;99.90;;;;;;1888594;74;21561;-80
2021/01/30 12:57:40;;;;;;;25.15;17.98;;;4.10;99.90;;;;;;1895869;75;21160;-79
2021/01/30 13:00:13;;;;;;;23.45;17.35;;;4.20;99.90;;;;;;1889219;75;21152;-79
2021/01/30 13:02:41;;;;;;;22.13;16.25;;;4.20;99.90;;;;;;1897401;74;21116;-79
2021/01/30 13:05:11;;;;;;;23.60;17.27;;;4.20;99.90;;;;;;1900775;74;21222;-80
2021/01/30 13:07:39;;;;;;;23.00;17.20;;;4.20;99.90;;;;;;1886958;75;21543;-80
2021/01/30 13:10:09;;;;;;;23.18;16.70;;;4.20;99.90;;;;;;1885413;74;21146;-79
2021/01/30 13:12:37;;;;;;;20.92;15.65;;;4.10;99.90;;;;;;1889186;74;21117;-80
2021/01/30 13:15:06;;;;;;;21.87;16.05;;;4.10;99.90;;;;;;1888589;75;21061;-80
2021/01/30 13:17:34;;;;;;;20.72;15.70;;;4.10;99.90;;;;;;1890017;74;21120;-80